SCEL/SCL METAR and TAF weather

Enter ICAO airport designator
Station Type Date Time Source
SCEL METAR 2019/08/24 07:00 UTC NOAA

SCEL 240700Z VRB02KT 9999 SCT180 10/04 Q1018 NOSIG


Station Type Date Time Source
SCEL Decoded METAR 2019/08/24 07:00 UTC NOAA

Station name not available
Aug 24, 2019 - 03:00 AM EDT / 2019.08.24 0700 UTC
Wind: Variable at 2 MPH (2 KT):0
Visibility: greater than 7 mile(s):0
Sky conditions: partly cloudy
Temperature: 50 F (10 C)
Dew Point: 39 F (4 C)
Relative Humidity: 66%
Pressure (altimeter): 30.06 in. Hg (1018 hPa)
ob: SCEL 240700Z VRB02KT 9999 SCT180 10/04 Q1018 NOSIG
cycle: 7

Station Type Date Time Source
SCEL TAF 2019/08/24 06:03 UTC NOAA

TAF SCEL 240429Z 2406/2506 16004KT CAVOK TX23/2418Z TN09/2411Z
BECMG 2407/2409 VRB02KT 7000 SCT180
BECMG 2414/2416 9999 BKN160
BECMG 2418/2420 19008KT SCT180 BKN200
BECMG 2421/2423 CAVOK
BECMG 2500/2502 16004KT

Example: see airport list